createdAt,value
2018-02-18T00:02:01.600Z,53.97
2018-02-18T00:04:29.073Z,46.10
2018-02-18T00:06:56.571Z,49.95
2018-02-18T00:09:24.852Z,52.65
2018-02-18T00:11:53.107Z,46.92
2018-02-18T00:17:22.681Z,38.85
2018-02-18T00:19:50.175Z,51.45
2018-02-18T00:22:17.668Z,51.97
2018-02-18T00:24:45.168Z,48.28
2018-02-18T00:27:12.691Z,51.92
2018-02-18T00:29:40.974Z,52.42
2018-02-18T00:32:09.212Z,57.72
2018-02-18T00:34:36.809Z,57.13
2018-02-18T00:37:04.250Z,50.95
2018-02-18T00:39:31.754Z,46.60
2018-02-18T00:41:59.221Z,50.78
2018-02-18T00:44:26.731Z,48.35
2018-02-18T00:46:54.966Z,40.30
2018-02-18T00:49:22.482Z,40.65
2018-02-18T00:51:50.743Z,40.92
2018-02-18T00:54:18.231Z,44.08
2018-02-18T00:56:45.758Z,41.50
2018-02-18T00:59:13.239Z,36.55
2018-02-18T01:01:41.496Z,46.58
2018-02-18T01:04:08.980Z,39.08
2018-02-18T01:06:36.462Z,51.67
2018-02-18T01:09:03.959Z,42.53
2018-02-18T01:11:31.431Z,49.70
2018-02-18T01:13:58.954Z,55.47
2018-02-18T01:16:26.427Z,49.88
2018-02-18T01:18:53.918Z,46.50
2018-02-18T01:21:22.210Z,42.62
2018-02-18T01:23:50.443Z,37.65
2018-02-18T01:26:17.938Z,47.33
2018-02-18T01:28:46.192Z,45.35
2018-02-18T01:31:13.694Z,37.25
2018-02-18T01:33:41.170Z,44.30
2018-02-18T01:36:08.666Z,46.70
2018-02-18T01:38:36.158Z,39.03
2018-02-18T01:41:03.664Z,41.03
2018-02-18T01:43:31.139Z,44.13
2018-02-18T01:46:00.119Z,38.47
2018-02-18T01:48:27.619Z,39.15
2018-02-18T01:50:55.869Z,40.25
2018-02-18T01:53:23.346Z,48.13
2018-02-18T01:55:51.606Z,41.88
2018-02-18T01:58:19.111Z,40.42
2018-02-18T02:00:46.575Z,41.55
2018-02-18T02:03:14.101Z,42.65
2018-02-18T02:05:42.331Z,47.80
2018-02-18T02:08:09.818Z,57.05
2018-02-18T02:10:37.306Z,46.00
2018-02-18T02:13:04.799Z,48.05
2018-02-18T02:15:32.307Z,49.47
2018-02-18T02:18:00.563Z,33.55
2018-02-18T02:20:28.088Z,52.30
2018-02-18T02:22:55.560Z,40.90
2018-02-18T02:25:23.034Z,49.22
2018-02-18T02:27:50.530Z,52.75
2018-02-18T02:30:18.803Z,43.78
2018-02-18T02:32:47.092Z,45.95
2018-02-18T02:35:14.547Z,49.47
2018-02-18T02:37:42.059Z,45.58
2018-02-18T02:40:09.540Z,40.22
2018-02-18T07:58:34.289Z,69.85
2018-02-18T08:01:01.790Z,75.35
2018-02-18T08:03:29.271Z,56.60
2018-02-18T08:05:57.558Z,58.83
2018-02-18T08:08:25.825Z,57.20
2018-02-18T08:10:54.078Z,60.67
2018-02-18T08:13:21.579Z,52.58
2018-02-18T08:15:49.063Z,58.47
2018-02-18T08:18:16.580Z,57.70
2018-02-18T08:20:44.850Z,62.05
2018-02-18T08:23:13.123Z,59.00
2018-02-18T08:25:40.601Z,54.65
2018-02-18T08:28:08.867Z,59.03
2018-02-18T08:30:37.114Z,57.00
2018-02-18T08:33:04.608Z,67.82
2018-02-18T08:35:32.871Z,77.78
2018-02-18T08:38:01.113Z,69.65
2018-02-18T08:40:28.629Z,53.78
2018-02-18T08:42:58.103Z,61.03
2018-02-18T08:45:25.632Z,55.60
2018-02-18T08:47:53.170Z,52.83
2018-02-18T08:50:20.665Z,58.05
2018-02-18T08:52:48.158Z,58.95
2018-02-18T08:55:16.435Z,54.72
2018-02-18T08:57:44.678Z,47.72
2018-02-18T09:00:12.179Z,45.58
2018-02-18T09:02:40.420Z,48.40
2018-02-18T09:05:07.929Z,49.03
2018-02-18T09:07:35.461Z,56.10
2018-02-18T09:10:03.762Z,78.65
2018-02-18T09:12:32.043Z,56.08
2018-02-18T09:14:59.546Z,49.30
2018-02-18T09:17:27.038Z,50.10
2018-02-18T09:19:55.326Z,58.13
2018-02-18T09:22:22.842Z,68.90
2018-02-18T09:24:50.359Z,46.15
2018-02-18T09:27:17.858Z,50.20
2018-02-18T09:29:45.379Z,47.92
2018-02-18T09:32:12.843Z,49.53
2018-02-18T09:34:40.393Z,50.78
2018-02-18T09:37:08.631Z,46.25
2018-02-18T09:39:36.113Z,41.40
2018-02-18T09:42:04.371Z,42.80
2018-02-18T09:44:31.851Z,45.10
2018-02-18T09:46:59.385Z,51.25
2018-02-18T09:49:26.855Z,45.42
2018-02-18T09:51:55.132Z,45.60
2018-02-18T09:54:23.414Z,58.40
2018-02-18T09:56:51.671Z,59.13
2018-02-18T09:59:19.980Z,54.33
2018-02-18T10:01:47.464Z,52.47
2018-02-18T10:04:16.015Z,52.10
2018-02-18T10:06:44.298Z,54.88
2018-02-18T10:09:11.840Z,44.80
2018-02-18T10:11:40.095Z,59.65
2018-02-18T10:14:07.597Z,53.33
2018-02-18T10:16:35.892Z,64.20
2018-02-18T10:19:03.402Z,55.70
2018-02-18T10:21:30.906Z,49.40
2018-02-18T10:23:58.387Z,56.35
2018-02-18T10:26:25.895Z,64.65
2018-02-18T10:28:53.394Z,55.40
2018-02-18T10:31:20.896Z,51.88
2018-02-18T10:33:49.233Z,60.60
2018-02-18T10:36:16.752Z,54.15
2018-02-18T10:38:45.899Z,55.10
2018-02-18T10:41:13.431Z,53.55
2018-02-18T10:43:40.906Z,57.33
2018-02-18T10:46:08.411Z,58.38
2018-02-18T10:48:36.685Z,47.03
2018-02-18T10:51:04.191Z,53.47
2018-02-18T10:53:31.727Z,56.37
2018-02-18T10:56:00.006Z,48.10
2018-02-18T10:58:28.243Z,45.03
2018-02-18T11:00:55.742Z,46.65
2018-02-18T11:03:24.022Z,57.72
2018-02-18T11:05:51.543Z,58.60
2018-02-18T11:08:19.000Z,50.65
2018-02-18T11:10:48.023Z,65.10
2018-02-18T11:13:16.294Z,56.37
2018-02-18T11:15:44.576Z,56.35
2018-02-18T11:18:12.856Z,58.85
2018-02-18T11:20:41.090Z,56.00
2018-02-18T11:23:08.602Z,48.47
2018-02-18T11:25:36.067Z,45.45
2018-02-18T11:28:03.591Z,49.97
2018-02-18T11:30:31.059Z,52.13
2018-02-18T11:32:59.372Z,53.35
2018-02-18T11:35:26.846Z,45.38
2018-02-18T11:37:54.360Z,47.13
2018-02-18T11:40:22.599Z,36.20
2018-02-18T11:42:50.191Z,53.38
2018-02-18T11:45:18.511Z,47.88
2018-02-18T11:47:45.991Z,46.78
2018-02-18T11:50:13.471Z,47.10
2018-02-18T11:52:40.982Z,38.80
2018-02-18T11:55:08.512Z,49.67
2018-02-18T11:57:36.799Z,43.47
2018-02-18T12:00:05.078Z,47.53
2018-02-18T12:02:32.607Z,47.60
2018-02-18T12:05:00.068Z,50.00
2018-02-18T12:07:28.333Z,45.33
2018-02-18T12:09:55.806Z,47.30
2018-02-18T12:12:23.323Z,41.83
2018-02-18T12:14:50.832Z,47.80
2018-02-18T12:17:19.115Z,40.15
2018-02-18T12:19:47.399Z,43.40
2018-02-18T12:22:15.630Z,44.13
2018-02-18T12:24:43.128Z,33.28
2018-02-18T12:27:11.379Z,44.30
2018-02-18T12:29:38.891Z,38.50
2018-02-18T12:32:06.413Z,48.30
2018-02-18T12:34:34.701Z,37.85
2018-02-18T12:37:02.942Z,41.53
2018-02-18T12:39:30.417Z,46.08
2018-02-18T12:41:58.706Z,41.97
2018-02-18T12:44:26.947Z,42.78
2018-02-18T12:46:54.446Z,37.50
2018-02-18T12:49:22.686Z,36.05
2018-02-18T12:51:50.192Z,41.88
2018-02-18T12:54:17.694Z,42.55
2018-02-18T12:56:45.240Z,43.47
2018-02-18T12:59:12.726Z,37.83
2018-02-18T13:01:40.226Z,43.05
2018-02-18T13:04:07.728Z,43.40
2018-02-18T13:06:35.249Z,34.15
2018-02-18T13:09:02.763Z,35.90
2018-02-18T13:11:30.247Z,40.45
2018-02-18T13:13:57.781Z,52.80
2018-02-18T13:16:25.261Z,44.67
2018-02-18T13:18:53.498Z,30.48
2018-02-18T13:21:20.995Z,29.83
2018-02-18T13:23:49.262Z,28.83
2018-02-18T13:26:16.798Z,29.80
2018-02-18T13:28:44.301Z,24.80
2018-02-18T13:31:12.562Z,33.80
2018-02-18T13:33:40.804Z,47.80
2018-02-18T13:36:08.322Z,32.88
2018-02-18T13:38:36.572Z,33.58
2018-02-18T13:41:04.103Z,43.55
2018-02-18T13:43:32.395Z,35.63
2018-02-18T13:45:59.896Z,40.28
2018-02-18T13:48:27.404Z,29.15
2018-02-18T13:50:54.903Z,20.35
2018-02-18T13:53:23.163Z,25.97
2018-02-18T13:55:51.409Z,25.00
2018-02-18T13:58:18.925Z,26.10
2018-02-18T14:00:46.409Z,28.38
2018-02-18T14:03:13.920Z,29.92
2018-02-18T14:05:41.399Z,35.47
2018-02-18T14:08:09.667Z,28.85
2018-02-18T14:10:37.915Z,25.35
2018-02-18T14:13:06.040Z,25.95
2018-02-18T14:15:33.527Z,29.45
2018-02-18T14:18:00.999Z,32.05
2018-02-18T14:20:28.500Z,28.92
2018-02-18T14:22:56.755Z,39.60
2018-02-18T14:25:24.260Z,47.55
2018-02-18T14:27:51.814Z,25.80
2018-02-18T14:30:19.310Z,39.80
2018-02-18T14:32:46.782Z,25.80
2018-02-18T14:35:14.308Z,27.48
2018-02-18T14:37:41.848Z,26.55
2018-02-18T14:40:09.344Z,28.27
2018-02-18T14:42:48.856Z,36.90
2018-02-18T14:45:28.155Z,31.80
2018-02-18T14:48:08.380Z,29.15
2018-02-18T14:50:47.718Z,28.90
2018-02-18T14:53:27.220Z,38.63
2018-02-18T14:56:06.474Z,31.83
2018-02-18T14:58:33.980Z,30.52
2018-02-18T15:01:01.450Z,33.80
2018-02-18T15:03:28.950Z,34.38
2018-02-18T15:05:56.436Z,30.98
2018-02-18T15:08:23.984Z,33.13
2018-02-18T15:10:51.493Z,40.15
2018-02-18T15:13:18.992Z,38.08
2018-02-18T15:15:46.490Z,42.13
2018-02-18T15:18:14.740Z,58.40
2018-02-18T15:20:42.227Z,71.05
2018-02-18T15:23:10.521Z,44.47
2018-02-18T15:25:38.012Z,46.75
2018-02-18T15:28:05.499Z,50.33
2018-02-18T15:30:32.995Z,43.10
2018-02-18T15:33:00.514Z,46.28
2018-02-18T15:35:28.007Z,39.63
2018-02-18T15:37:56.337Z,48.40
2018-02-18T15:40:23.770Z,53.67
2018-02-18T15:42:51.267Z,41.08
2018-02-18T15:45:18.780Z,35.47
2018-02-18T15:47:46.291Z,35.72
2018-02-18T15:50:13.811Z,34.45
2018-02-18T15:52:41.300Z,43.30
2018-02-18T15:55:08.811Z,41.55
2018-02-18T15:57:36.280Z,30.77
2018-02-18T16:00:03.789Z,35.55
2018-02-18T16:02:31.294Z,29.30
2018-02-18T16:04:58.771Z,35.67
2018-02-18T16:07:26.274Z,35.10
2018-02-18T16:09:54.543Z,36.63
2018-02-18T16:12:22.011Z,38.28
2018-02-18T16:14:50.305Z,36.90
2018-02-18T16:17:18.600Z,36.95
2018-02-18T16:19:46.096Z,36.03
2018-02-18T16:22:13.618Z,38.65
2018-02-18T16:24:41.120Z,33.95
2018-02-18T16:27:08.622Z,32.88
2018-02-18T16:29:36.106Z,32.92
2018-02-18T16:32:03.614Z,37.95
2018-02-18T16:34:31.880Z,38.90
2018-02-18T16:36:59.436Z,36.90
2018-02-18T16:39:26.931Z,39.55
2018-02-18T16:41:55.189Z,35.72
2018-02-18T16:44:23.478Z,38.95
2018-02-18T16:46:51.718Z,38.38
2018-02-18T16:49:19.228Z,40.38
2018-02-18T16:51:46.712Z,37.53
2018-02-18T16:54:14.219Z,40.55
2018-02-18T16:56:41.696Z,43.92
2018-02-18T16:59:09.980Z,42.55
2018-02-18T17:01:37.468Z,45.35
2018-02-18T17:04:05.024Z,45.12
2018-02-18T17:06:32.626Z,38.78
2018-02-18T17:09:00.150Z,47.47
2018-02-18T17:11:27.644Z,39.80
2018-02-18T17:13:55.955Z,40.45
2018-02-18T17:16:23.456Z,37.47
2018-02-18T17:18:51.004Z,42.70
2018-02-18T17:21:18.528Z,50.90
2018-02-18T17:23:46.042Z,34.55
2018-02-18T17:26:13.553Z,39.42
2018-02-18T17:28:41.815Z,39.13
2018-02-18T17:31:10.082Z,35.67
2018-02-18T17:33:37.582Z,28.73
2018-02-18T17:36:05.071Z,33.55
2018-02-18T17:38:32.588Z,26.70
2018-02-18T17:41:00.068Z,31.23
2018-02-18T17:43:27.597Z,31.17
2018-02-18T17:45:55.083Z,31.62
2018-02-18T17:48:22.602Z,30.98
2018-02-18T17:50:50.873Z,30.58
2018-02-18T17:53:19.801Z,31.50
2018-02-18T17:55:47.339Z,36.15
2018-02-18T17:58:14.840Z,33.03
2018-02-18T18:00:42.351Z,36.25
2018-02-18T18:03:10.583Z,39.25
2018-02-18T18:05:38.139Z,36.85
2018-02-18T18:08:05.609Z,34.13
2018-02-18T18:10:33.136Z,31.55
2018-02-18T18:13:00.639Z,33.05
2018-02-18T18:15:28.132Z,39.35
2018-02-18T18:17:56.429Z,42.15
2018-02-18T18:20:24.229Z,29.42
2018-02-18T18:22:51.761Z,32.92
2018-02-18T18:25:19.271Z,30.98
2018-02-18T18:27:46.786Z,28.87
2018-02-18T18:30:14.301Z,29.20
2018-02-18T18:32:42.580Z,34.70
2018-02-18T18:35:10.820Z,37.80
2018-02-18T18:37:38.363Z,39.15
2018-02-18T18:40:05.861Z,33.28
2018-02-18T18:42:33.374Z,37.60
2018-02-18T18:45:00.876Z,32.92
2018-02-18T18:47:29.114Z,28.87
2018-02-18T18:49:56.634Z,35.13
2018-02-18T18:52:24.898Z,36.33
2018-02-18T18:54:53.170Z,37.15
2018-02-18T18:57:21.437Z,38.78
2018-02-18T18:59:48.918Z,46.85
2018-02-18T19:02:17.218Z,46.25
2018-02-18T19:04:44.711Z,42.15
2018-02-18T19:07:12.225Z,37.17
2018-02-18T19:09:39.725Z,47.45
2018-02-18T19:12:07.247Z,43.90
2018-02-18T19:14:34.723Z,41.22
2018-02-18T19:17:02.222Z,39.17
2018-02-18T19:19:31.262Z,41.95
2018-02-18T19:21:58.751Z,43.75
2018-02-18T19:24:26.345Z,39.22
2018-02-18T19:26:53.860Z,48.92
2018-02-18T19:29:21.356Z,50.47
2018-02-18T19:31:48.871Z,45.20
2018-02-18T19:34:16.355Z,44.45
2018-02-18T19:36:43.852Z,39.95
2018-02-18T19:39:12.123Z,45.17
2018-02-18T19:41:40.412Z,43.28
2018-02-18T19:44:08.679Z,47.17
2018-02-18T19:46:37.096Z,32.55
2018-02-18T19:49:04.584Z,23.12
2018-02-18T19:51:32.106Z,24.92
2018-02-18T19:53:59.612Z,31.73
2018-02-18T19:56:27.106Z,32.85
2018-02-18T19:58:55.402Z,33.00
2018-02-18T20:01:23.608Z,34.63
2018-02-18T20:03:51.111Z,30.08
2018-02-18T20:06:19.396Z,30.80
2018-02-18T20:08:47.664Z,30.08
2018-02-18T20:11:15.917Z,29.17
2018-02-18T20:13:43.382Z,33.17
2018-02-18T20:16:10.903Z,29.17
2018-02-18T20:18:38.392Z,35.97
2018-02-18T20:21:05.950Z,35.70
2018-02-18T20:23:33.442Z,38.72
2018-02-18T20:26:01.760Z,30.52
2018-02-18T20:28:29.225Z,38.08
2018-02-18T20:30:56.743Z,39.85
2018-02-18T20:33:24.255Z,34.58
2018-02-18T20:35:51.820Z,30.80
2018-02-18T20:38:19.329Z,30.90
2018-02-18T20:40:46.831Z,35.92
2018-02-18T20:43:14.363Z,33.63
2018-02-18T20:45:41.857Z,31.35
2018-02-18T20:48:09.362Z,34.20
2018-02-18T20:50:36.838Z,29.20
2018-02-18T20:53:04.330Z,31.58
2018-02-18T20:55:31.858Z,27.67
2018-02-18T20:57:59.371Z,32.38
2018-02-18T21:00:26.909Z,33.80
2018-02-18T21:02:54.422Z,33.35
2018-02-18T21:05:21.915Z,31.62
2018-02-18T21:07:49.398Z,29.58
2018-02-18T21:10:16.961Z,30.88
2018-02-18T21:12:45.236Z,31.67
2018-02-18T21:15:12.705Z,29.33
2018-02-18T21:17:41.008Z,30.20
2018-02-18T21:20:08.483Z,28.02
2018-02-18T21:22:36.008Z,30.37
2018-02-18T21:25:04.272Z,28.52
2018-02-18T21:27:31.786Z,33.92
2018-02-18T21:29:59.294Z,31.23
2018-02-18T21:32:27.585Z,28.80
2018-02-18T21:34:55.872Z,35.45
2018-02-18T21:37:24.172Z,32.22
2018-02-18T21:39:51.674Z,30.85
2018-02-18T21:42:19.154Z,34.30
2018-02-18T21:44:47.428Z,36.90
2018-02-18T21:47:15.706Z,34.47
2018-02-18T21:49:43.980Z,35.50
2018-02-18T21:52:12.236Z,32.78
2018-02-18T21:54:39.753Z,38.28
2018-02-18T21:57:07.255Z,38.03
2018-02-18T21:59:34.763Z,39.40
2018-02-18T22:02:03.023Z,36.45
2018-02-18T22:04:31.322Z,33.00
2018-02-18T22:06:58.829Z,36.65
2018-02-18T22:09:26.333Z,40.85
2018-02-18T22:11:53.914Z,40.10
2018-02-18T22:14:21.419Z,37.28
2018-02-18T22:16:48.891Z,39.20
2018-02-18T22:19:17.168Z,36.70
2018-02-18T22:21:45.416Z,43.72
2018-02-18T22:24:12.913Z,41.15
2018-02-18T22:26:41.192Z,38.95
2018-02-18T22:29:09.455Z,45.58
2018-02-18T22:31:37.710Z,49.17
2018-02-18T22:34:05.198Z,45.22
2018-02-18T22:36:33.480Z,50.33
2018-02-18T22:39:01.724Z,45.08
2018-02-18T22:41:29.236Z,47.65
2018-02-18T22:43:56.705Z,46.33
2018-02-18T22:46:24.223Z,45.35
2018-02-18T22:48:52.483Z,46.03
2018-02-18T22:51:19.944Z,49.35
2018-02-18T22:53:48.238Z,50.33
2018-02-18T22:56:16.467Z,47.40
2018-02-18T22:58:43.970Z,53.30
2018-02-18T23:01:12.218Z,52.60
2018-02-18T23:03:39.796Z,49.75
2018-02-18T23:06:07.206Z,52.83
2018-02-18T23:08:34.690Z,50.95
2018-02-18T23:11:02.195Z,50.92
2018-02-18T23:13:29.676Z,43.60
2018-02-18T23:15:57.168Z,46.08
2018-02-18T23:18:24.670Z,47.30
2018-02-18T23:21:04.070Z,48.20
2018-02-18T23:23:31.540Z,45.15
2018-02-18T23:25:59.071Z,38.47
2018-02-18T23:28:29.398Z,48.63
2018-02-18T23:30:56.883Z,43.58
2018-02-18T23:33:25.171Z,51.95
2018-02-18T23:35:53.410Z,46.63
2018-02-18T23:38:20.909Z,44.03
2018-02-18T23:40:49.141Z,59.45
2018-02-18T23:43:16.647Z,45.92
2018-02-18T23:45:44.889Z,52.53
2018-02-18T23:48:12.396Z,52.42
2018-02-18T23:50:39.863Z,49.45
2018-02-18T23:53:07.354Z,56.70
2018-02-18T23:55:34.877Z,56.95
2018-02-18T23:58:02.335Z,54.33
